Time;durP1;ratioP1;P1;durP2;ratioP2;P2;SDS_P1;SDS_P2;PMS_P1;PMS_P2;Temp;Humidity;BMP_temperature;BMP_pressure;BME280_temperature;BME280_humidity;BME280_pressure;Samples;Min_cycle;Max_cycle;Signal;HPM_P1;HPM_P2
2022/07/01 00:00:20;;;;;;;1.00;0.10;;;;;;;;;;5032430;28;20041;-85
2022/07/01 00:02:46;;;;;;;0.35;0.10;;;;;;;;;;5032231;28;20037;-87
2022/07/01 00:05:12;;;;;;;0.95;0.20;;;;;;;;;;5049422;28;20029;-85
2022/07/01 00:07:39;;;;;;;2.08;0.25;;;;;;;;;;5032417;28;20037;-85
2022/07/01 00:10:05;;;;;;;0.88;0.20;;;;;;;;;;5032180;28;20037;-85
2022/07/01 00:12:31;;;;;;;0.40;0.15;;;;;;;;;;4999912;28;20037;-86
2022/07/01 00:14:57;;;;;;;1.73;0.20;;;;;;;;;;5032128;28;20033;-86
2022/07/01 00:17:25;;;;;;;1.08;0.50;;;;;;;;;;5048957;28;20462;-86
2022/07/01 00:19:52;;;;;;;1.90;0.20;;;;;;;;;;5032190;28;20034;-86
2022/07/01 00:22:18;;;;;;;0.73;0.20;;;;;;;;;;5032125;28;20045;-86
2022/07/01 00:24:46;;;;;;;1.30;0.22;;;;;;;;;;5015803;28;20033;-86
2022/07/01 00:27:12;;;;;;;1.05;0.30;;;;;;;;;;5016226;28;20135;-86
2022/07/01 00:29:41;;;;;;;0.70;0.20;;;;;;;;;;5015757;28;20034;-85
2022/07/01 00:32:07;;;;;;;0.50;0.20;;;;;;;;;;5031857;28;20128;-86
2022/07/01 00:34:33;;;;;;;0.95;0.25;;;;;;;;;;5031606;28;20034;-85
2022/07/01 00:36:59;;;;;;;1.08;0.25;;;;;;;;;;5032133;28;20059;-86
2022/07/01 00:39:25;;;;;;;1.48;0.57;;;;;;;;;;5048513;28;20025;-86
2022/07/01 00:41:51;;;;;;;0.82;0.30;;;;;;;;;;5032173;28;20042;-85
2022/07/01 00:44:19;;;;;;;0.95;0.17;;;;;;;;;;5028943;28;20022;-86
2022/07/01 00:46:45;;;;;;;1.30;0.32;;;;;;;;;;4979635;28;20034;-85
2022/07/01 00:49:10;;;;;;;1.30;0.22;;;;;;;;;;4980675;28;20030;-86
2022/07/01 00:51:36;;;;;;;1.00;0.20;;;;;;;;;;5031781;28;20064;-86
2022/07/01 00:54:02;;;;;;;0.30;0.20;;;;;;;;;;5048143;28;20029;-85
2022/07/01 00:56:29;;;;;;;0.65;0.30;;;;;;;;;;5026767;28;20041;-86
2022/07/01 00:58:55;;;;;;;0.55;0.20;;;;;;;;;;4995372;28;20033;-85
2022/07/01 01:01:22;;;;;;;1.35;0.30;;;;;;;;;;4963340;28;20033;-86
2022/07/01 01:03:50;;;;;;;0.52;0.20;;;;;;;;;;4995623;28;20034;-86
2022/07/01 01:06:16;;;;;;;1.30;0.20;;;;;;;;;;4979334;28;20153;-86
2022/07/01 01:08:42;;;;;;;1.95;0.20;;;;;;;;;;5011869;28;20161;-86
2022/07/01 01:11:11;;;;;;;0.65;0.20;;;;;;;;;;4979259;28;20053;-86
2022/07/01 01:13:37;;;;;;;0.98;0.40;;;;;;;;;;5028152;28;20137;-87
2022/07/01 01:16:03;;;;;;;1.98;0.38;;;;;;;;;;4995180;28;20048;-85
2022/07/01 01:18:28;;;;;;;0.52;0.30;;;;;;;;;;5011473;28;20121;-86
2022/07/01 01:20:57;;;;;;;1.65;0.35;;;;;;;;;;4979850;28;20090;-85
2022/07/01 01:23:23;;;;;;;0.82;0.20;;;;;;;;;;5034221;28;20033;-86
2022/07/01 01:25:50;;;;;;;0.70;0.20;;;;;;;;;;5034567;28;20040;-86
2022/07/01 01:28:16;;;;;;;0.65;0.20;;;;;;;;;;5002021;28;20078;-86
2022/07/01 01:30:41;;;;;;;0.93;0.28;;;;;;;;;;5001997;28;20029;-86
2022/07/01 01:33:11;;;;;;;0.73;0.35;;;;;;;;;;5001629;28;20029;-86
2022/07/01 01:35:38;;;;;;;4.97;0.77;;;;;;;;;;5002678;28;20131;-86
2022/07/01 01:38:05;;;;;;;2.35;0.28;;;;;;;;;;5001619;28;20522;-86
2022/07/01 01:40:31;;;;;;;0.40;0.20;;;;;;;;;;5001684;28;20562;-86
2022/07/01 01:42:57;;;;;;;1.42;0.40;;;;;;;;;;5034525;28;20048;-85
2022/07/01 01:45:24;;;;;;;3.72;1.20;;;;;;;;;;5018659;28;20038;-85
2022/07/01 01:47:49;;;;;;;1.30;0.20;;;;;;;;;;5044142;28;20039;-86
2022/07/01 01:50:17;;;;;;;1.88;0.35;;;;;;;;;;5024248;28;20073;-86
2022/07/01 01:52:44;;;;;;;1.08;0.20;;;;;;;;;;4982214;28;20049;-84
2022/07/01 01:55:13;;;;;;;2.05;0.38;;;;;;;;;;4998019;28;20044;-86
2022/07/01 01:57:39;;;;;;;1.13;0.15;;;;;;;;;;4998201;28;20491;-86
2022/07/01 02:00:07;;;;;;;0.85;0.50;;;;;;;;;;4982205;28;20108;-86
2022/07/01 02:02:36;;;;;;;0.80;0.30;;;;;;;;;;5015141;28;20124;-85
2022/07/01 02:05:04;;;;;;;2.20;0.32;;;;;;;;;;4982524;28;20511;-85
2022/07/01 02:07:29;;;;;;;1.15;0.30;;;;;;;;;;4998186;28;20034;-85
2022/07/01 02:09:56;;;;;;;1.17;0.28;;;;;;;;;;4982117;28;20044;-85
2022/07/01 02:12:21;;;;;;;1.25;0.28;;;;;;;;;;5030705;28;20038;-85
2022/07/01 02:14:47;;;;;;;0.90;0.60;;;;;;;;;;4997768;28;20052;-86
2022/07/01 02:17:14;;;;;;;2.38;0.40;;;;;;;;;;4997837;28;20049;-85
2022/07/01 02:19:40;;;;;;;0.60;0.20;;;;;;;;;;4997923;28;20041;-84
2022/07/01 02:22:05;;;;;;;0.77;0.20;;;;;;;;;;4981537;28;20064;-85
2022/07/01 02:24:32;;;;;;;0.68;0.20;;;;;;;;;;4998040;28;20100;-85
2022/07/01 02:26:58;;;;;;;0.60;0.38;;;;;;;;;;4998351;28;20056;-85
2022/07/01 02:29:24;;;;;;;1.10;0.40;;;;;;;;;;4981980;28;20045;-86
2022/07/01 02:31:51;;;;;;;0.85;0.40;;;;;;;;;;4981744;28;20038;-86
2022/07/01 02:34:16;;;;;;;0.95;0.20;;;;;;;;;;4997489;28;20095;-86
2022/07/01 02:36:44;;;;;;;3.33;0.38;;;;;;;;;;5001086;28;20029;-85
2022/07/01 02:39:12;;;;;;;3.45;0.50;;;;;;;;;;4985109;28;20124;-85
2022/07/01 02:44:23;;;;;;;1.10;0.30;;;;;;;;;;5005897;28;20037;-85
2022/07/01 02:46:48;;;;;;;5.10;1.10;;;;;;;;;;4985296;28;20458;-86
2022/07/01 02:49:15;;;;;;;0.80;0.30;;;;;;;;;;5001051;28;20040;-86
2022/07/01 02:51:41;;;;;;;1.67;0.68;;;;;;;;;;5033585;28;20037;-85
2022/07/01 02:54:09;;;;;;;1.23;0.45;;;;;;;;;;5001316;28;20492;-86
2022/07/01 02:56:35;;;;;;;0.45;0.30;;;;;;;;;;5000909;28;20039;-85
2022/07/01 02:59:02;;;;;;;1.45;0.20;;;;;;;;;;4984912;28;20029;-86
2022/07/01 03:01:27;;;;;;;1.25;0.50;;;;;;;;;;5017570;28;20037;-86
2022/07/01 03:03:53;;;;;;;2.45;0.50;;;;;;;;;;5000785;28;20061;-85
2022/07/01 03:06:21;;;;;;;0.90;0.20;;;;;;;;;;4984622;28;20034;-85
2022/07/01 03:08:47;;;;;;;0.98;0.30;;;;;;;;;;5000814;28;20045;-85
2022/07/01 03:11:12;;;;;;;0.60;0.45;;;;;;;;;;4984479;28;20029;-86
2022/07/01 03:13:38;;;;;;;0.38;0.25;;;;;;;;;;5033791;28;20034;-85
2022/07/01 03:16:04;;;;;;;1.38;0.63;;;;;;;;;;5000547;28;20042;-85
2022/07/01 03:18:29;;;;;;;1.95;0.30;;;;;;;;;;5000529;28;20869;-86
2022/07/01 03:20:56;;;;;;;2.22;0.43;;;;;;;;;;4984365;28;20041;-85
2022/07/01 03:23:24;;;;;;;4.13;0.40;;;;;;;;;;5000398;28;20041;-85
2022/07/01 03:25:50;;;;;;;1.40;0.40;;;;;;;;;;5000813;28;20033;-85
2022/07/01 03:28:17;;;;;;;2.83;1.20;;;;;;;;;;4983966;28;20273;-85
2022/07/01 03:30:43;;;;;;;0.50;0.20;;;;;;;;;;4984491;28;20025;-85
2022/07/01 03:33:09;;;;;;;0.52;0.20;;;;;;;;;;4999785;28;20044;-86
2022/07/01 03:35:35;;;;;;;0.98;0.30;;;;;;;;;;5000116;28;20034;-85
2022/07/01 03:38:03;;;;;;;3.10;0.40;;;;;;;;;;5000373;28;20539;-85
2022/07/01 03:40:30;;;;;;;1.55;0.30;;;;;;;;;;4984341;28;20033;-85
2022/07/01 03:42:55;;;;;;;1.27;0.50;;;;;;;;;;4984034;28;20037;-86
2022/07/01 03:45:22;;;;;;;0.60;0.32;;;;;;;;;;4999953;28;20029;-85
2022/07/01 03:47:48;;;;;;;2.47;0.43;;;;;;;;;;4983502;28;20036;-85
2022/07/01 03:50:14;;;;;;;1.50;0.40;;;;;;;;;;4983790;28;20042;-84
2022/07/01 03:52:41;;;;;;;3.45;0.30;;;;;;;;;;4983781;28;20117;-85
2022/07/01 03:55:09;;;;;;;1.35;0.40;;;;;;;;;;5016786;28;20075;-85
2022/07/01 03:57:35;;;;;;;2.05;0.40;;;;;;;;;;4980205;28;20048;-85
2022/07/01 04:00:01;;;;;;;1.08;0.20;;;;;;;;;;5012817;28;20040;-85
2022/07/01 04:02:27;;;;;;;4.22;0.50;;;;;;;;;;5012467;28;20408;-85
2022/07/01 04:04:52;;;;;;;1.10;0.38;;;;;;;;;;5028602;28;20052;-85
2022/07/01 04:07:19;;;;;;;0.68;0.10;;;;;;;;;;5028786;28;20030;-86
2022/07/01 04:09:45;;;;;;;1.08;0.30;;;;;;;;;;5028849;28;20040;-85
2022/07/01 04:12:13;;;;;;;1.63;0.30;;;;;;;;;;5012943;28;20030;-86
2022/07/01 04:14:39;;;;;;;2.40;0.65;;;;;;;;;;5012683;28;20073;-85
2022/07/01 04:17:05;;;;;;;0.85;0.30;;;;;;;;;;4995882;28;20030;-85
2022/07/01 04:19:31;;;;;;;2.83;0.35;;;;;;;;;;5012474;28;20165;-86
2022/07/01 04:24:41;;;;;;;1.40;0.30;;;;;;;;;;5048997;28;20176;-85
2022/07/01 04:27:07;;;;;;;0.98;0.32;;;;;;;;;;5031878;28;20034;-85
2022/07/01 04:29:33;;;;;;;1.25;0.40;;;;;;;;;;5015857;28;20124;-85
2022/07/01 04:32:00;;;;;;;1.17;0.45;;;;;;;;;;5031812;28;20128;-84
2022/07/01 04:34:27;;;;;;;1.10;0.50;;;;;;;;;;5031583;28;20038;-85
2022/07/01 04:36:53;;;;;;;1.45;0.25;;;;;;;;;;5015214;28;20037;-85
2022/07/01 04:39:19;;;;;;;1.23;0.20;;;;;;;;;;5048623;28;20044;-85
2022/07/01 04:42:00;;;;;;;1.60;0.40;;;;;;;;;;5048448;28;20029;-85
2022/07/01 04:44:30;;;;;;;0.90;0.20;;;;;;;;;;5033842;28;20029;-85
2022/07/01 04:46:56;;;;;;;1.15;0.40;;;;;;;;;;5032182;28;20030;-88
2022/07/01 04:49:23;;;;;;;1.75;0.40;;;;;;;;;;5015174;28;20100;-86
2022/07/01 04:51:50;;;;;;;0.77;0.20;;;;;;;;;;4983079;28;20131;-86
2022/07/01 04:54:15;;;;;;;1.83;0.40;;;;;;;;;;5031859;28;20038;-86
2022/07/01 04:56:41;;;;;;;0.95;0.22;;;;;;;;;;4982751;28;20075;-86
2022/07/01 04:59:08;;;;;;;1.30;0.40;;;;;;;;;;4981916;28;20095;-86
2022/07/01 05:01:34;;;;;;;1.77;0.40;;;;;;;;;;4998387;28;20048;-87
2022/07/01 05:04:01;;;;;;;0.85;0.40;;;;;;;;;;4998479;28;20033;-86
2022/07/01 05:06:26;;;;;;;1.48;0.40;;;;;;;;;;4982743;28;20034;-86
2022/07/01 05:08:52;;;;;;;0.95;0.30;;;;;;;;;;4983125;28;20044;-86
2022/07/01 05:11:17;;;;;;;1.10;0.22;;;;;;;;;;4998829;28;20041;-86
2022/07/01 05:13:43;;;;;;;1.38;0.30;;;;;;;;;;4982396;28;20048;-86
2022/07/01 05:16:11;;;;;;;0.98;0.20;;;;;;;;;;4982243;28;20554;-86
2022/07/01 05:24:12;;;;;;;3.58;0.60;;;;;;;;;;5023195;28;20033;-86
2022/07/01 05:26:37;;;;;;;2.38;0.40;;;;;;;;;;5017974;28;20033;-86
2022/07/01 05:29:04;;;;;;;2.03;0.30;;;;;;;;;;5017757;28;20090;-86
2022/07/01 05:31:30;;;;;;;1.95;0.50;;;;;;;;;;5001484;28;20040;-86
2022/07/01 05:33:55;;;;;;;0.90;0.30;;;;;;;;;;5017837;28;20064;-86
2022/07/01 05:36:21;;;;;;;1.85;0.63;;;;;;;;;;5018006;28;20055;-87
2022/07/01 05:38:48;;;;;;;0.88;0.20;;;;;;;;;;5001780;28;20116;-85
2022/07/01 05:41:16;;;;;;;1.25;0.63;;;;;;;;;;5017764;28;20025;-85
2022/07/01 05:43:42;;;;;;;3.03;0.40;;;;;;;;;;5001450;28;20033;-86
2022/07/01 05:46:11;;;;;;;1.90;0.60;;;;;;;;;;5018123;28;20039;-90
2022/07/01 05:48:36;;;;;;;2.00;0.45;;;;;;;;;;5018223;28;20124;-89
2022/07/01 05:51:08;;;;;;;2.40;0.70;;;;;;;;;;5002439;28;20128;-87
2022/07/01 05:53:34;;;;;;;1.33;0.20;;;;;;;;;;5034601;28;20071;-87
2022/07/01 05:56:02;;;;;;;1.60;0.43;;;;;;;;;;5001585;28;20036;-87
2022/07/01 05:58:27;;;;;;;6.25;0.57;;;;;;;;;;5001077;28;20147;-87
2022/07/01 06:00:54;;;;;;;5.13;0.70;;;;;;;;;;5017664;28;20124;-87
2022/07/01 06:03:25;;;;;;;7.18;1.17;;;;;;;;;;5034584;28;20049;-88
2022/07/01 06:05:53;;;;;;;7.90;1.08;;;;;;;;;;5001840;28;20072;-89
2022/07/01 06:08:18;;;;;;;6.72;0.82;;;;;;;;;;5034654;28;20071;-89
2022/07/01 06:10:46;;;;;;;3.70;0.40;;;;;;;;;;5022116;28;20069;-89
2022/07/01 06:13:14;;;;;;;13.55;0.60;;;;;;;;;;5005783;28;20119;-90
2022/07/01 06:15:39;;;;;;;3.85;0.45;;;;;;;;;;5007466;28;20037;-90
2022/07/01 06:18:05;;;;;;;4.63;0.57;;;;;;;;;;5005463;28;20033;-90
2022/07/01 06:20:30;;;;;;;58.42;6.68;;;;;;;;;;4999342;28;20095;-85
2022/07/01 06:22:58;;;;;;;20.92;3.30;;;;;;;;;;5001425;28;20033;-86
2022/07/01 06:25:25;;;;;;;10.48;1.33;;;;;;;;;;4985306;28;20048;-89
2022/07/01 06:27:50;;;;;;;14.75;0.90;;;;;;;;;;4984707;28;20029;-82
2022/07/01 06:30:18;;;;;;;5.03;0.73;;;;;;;;;;4984459;28;20099;-86
2022/07/01 06:32:43;;;;;;;4.68;1.15;;;;;;;;;;5001084;28;20041;-85
2022/07/01 06:35:10;;;;;;;10.32;1.52;;;;;;;;;;4984860;28;20041;-86
2022/07/01 06:37:36;;;;;;;5.57;0.80;;;;;;;;;;4985144;28;20113;-86
2022/07/01 06:40:07;;;;;;;5.53;0.90;;;;;;;;;;5001254;28;20136;-87
2022/07/01 06:42:33;;;;;;;7.32;1.55;;;;;;;;;;5017683;28;20084;-86
2022/07/01 06:45:00;;;;;;;2.47;0.50;;;;;;;;;;4998175;28;20524;-87
2022/07/01 06:47:28;;;;;;;2.95;0.82;;;;;;;;;;4998002;28;20112;-87
2022/07/01 06:49:53;;;;;;;3.53;1.00;;;;;;;;;;4969279;28;20034;-86
2022/07/01 06:52:19;;;;;;;1.45;0.70;;;;;;;;;;5013732;28;20038;-81
2022/07/01 06:54:45;;;;;;;5.55;1.17;;;;;;;;;;5029471;28;20041;-82
2022/07/01 06:57:10;;;;;;;3.70;0.77;;;;;;;;;;5022068;28;20660;-82
2022/07/01 06:59:36;;;;;;;2.13;0.80;;;;;;;;;;5015898;28;20051;-82
2022/07/01 07:02:01;;;;;;;1.48;0.57;;;;;;;;;;5049308;28;20064;-83
2022/07/01 07:04:27;;;;;;;6.55;1.15;;;;;;;;;;5032809;28;20039;-82
2022/07/01 07:06:52;;;;;;;4.68;1.17;;;;;;;;;;5033110;28;20106;-82
2022/07/01 07:09:18;;;;;;;5.60;2.47;;;;;;;;;;5016319;28;20061;-82
2022/07/01 07:11:43;;;;;;;73.20;65.15;;;;;;;;;;5032229;28;20036;-82
2022/07/01 07:14:09;;;;;;;150.50;120.68;;;;;;;;;;5016251;28;20033;-83
2022/07/01 07:16:34;;;;;;;31.50;25.92;;;;;;;;;;4983482;28;20042;-82
2022/07/01 07:19:00;;;;;;;8.88;5.13;;;;;;;;;;5016031;28;20034;-83
2022/07/01 07:21:25;;;;;;;7.35;2.78;;;;;;;;;;5015444;28;20060;-82
2022/07/01 07:23:51;;;;;;;4.95;1.70;;;;;;;;;;5028337;28;20038;-82
2022/07/01 07:26:16;;;;;;;2.42;1.05;;;;;;;;;;4996482;28;20492;-83
2022/07/01 07:28:42;;;;;;;3.33;1.58;;;;;;;;;;5012539;28;20057;-84
2022/07/01 07:31:07;;;;;;;4.30;0.90;;;;;;;;;;4980212;28;20129;-83
2022/07/01 07:33:33;;;;;;;5.85;1.15;;;;;;;;;;4979547;28;20535;-82
2022/07/01 07:35:58;;;;;;;5.03;1.40;;;;;;;;;;4980126;28;20077;-83
2022/07/01 07:38:24;;;;;;;3.80;1.90;;;;;;;;;;4996413;28;20033;-83
2022/07/01 07:40:49;;;;;;;6.63;2.60;;;;;;;;;;4996248;28;20104;-83
2022/07/01 07:43:15;;;;;;;7.57;1.80;;;;;;;;;;4996213;28;20037;-83
2022/07/01 07:45:41;;;;;;;8.57;1.90;;;;;;;;;;4999208;28;20037;-83
2022/07/01 07:48:09;;;;;;;11.05;4.20;;;;;;;;;;5014779;28;20423;-82
2022/07/01 07:50:34;;;;;;;11.70;4.18;;;;;;;;;;5011389;28;20076;-82
2022/07/01 07:53:00;;;;;;;12.20;5.13;;;;;;;;;;5028606;28;20408;-82
2022/07/01 07:55:27;;;;;;;9.50;3.58;;;;;;;;;;5028536;28;20040;-82
2022/07/01 07:57:53;;;;;;;9.35;4.68;;;;;;;;;;5027977;28;20040;-82
2022/07/01 08:00:19;;;;;;;11.65;5.80;;;;;;;;;;5012117;28;20030;-82
2022/07/01 08:02:44;;;;;;;17.23;8.23;;;;;;;;;;5028374;28;20041;-83
2022/07/01 08:05:10;;;;;;;12.75;7.15;;;;;;;;;;4995605;28;20042;-82
2022/07/01 08:07:39;;;;;;;13.52;6.78;;;;;;;;;;5012293;28;20026;-83
2022/07/01 08:10:05;;;;;;;12.90;7.53;;;;;;;;;;5011792;28;20038;-82
2022/07/01 08:12:31;;;;;;;12.00;6.80;;;;;;;;;;4995625;28;20496;-82
2022/07/01 08:14:56;;;;;;;13.52;7.80;;;;;;;;;;4995517;28;20052;-83
2022/07/01 08:17:23;;;;;;;13.90;7.05;;;;;;;;;;4995417;28;20038;-82
2022/07/01 08:19:49;;;;;;;10.65;5.07;;;;;;;;;;5011701;28;20045;-82
2022/07/01 08:22:15;;;;;;;8.38;4.82;;;;;;;;;;5028003;28;20112;-82
2022/07/01 08:24:40;;;;;;;10.85;4.43;;;;;;;;;;5045048;28;20518;-82
2022/07/01 08:27:06;;;;;;;8.90;4.38;;;;;;;;;;5047986;28;20041;-83
2022/07/01 08:29:31;;;;;;;8.88;3.90;;;;;;;;;;5047633;28;20064;-82
2022/07/01 08:31:57;;;;;;;4.68;2.40;;;;;;;;;;5030656;28;20056;-83
2022/07/01 08:34:22;;;;;;;6.13;2.28;;;;;;;;;;5047138;28;20037;-82
2022/07/01 08:36:48;;;;;;;7.15;2.85;;;;;;;;;;5031407;28;20428;-82
2022/07/01 08:39:13;;;;;;;4.93;2.63;;;;;;;;;;5047688;28;20087;-81
2022/07/01 08:41:42;;;;;;;4.80;2.28;;;;;;;;;;5031108;28;20400;-82
2022/07/01 08:44:08;;;;;;;5.32;1.63;;;;;;;;;;5047967;28;20187;-82
2022/07/01 08:46:33;;;;;;;3.85;1.42;;;;;;;;;;4998124;28;20117;-82
2022/07/01 08:48:59;;;;;;;3.60;0.95;;;;;;;;;;5014636;28;20175;-83
2022/07/01 08:51:24;;;;;;;4.07;1.38;;;;;;;;;;5027568;28;20061;-82
2022/07/01 08:53:50;;;;;;;3.03;0.73;;;;;;;;;;5027380;28;20076;-82
2022/07/01 08:58:59;;;;;;;16.48;2.47;;;;;;;;;;5035849;28;20077;-84
2022/07/01 09:01:26;;;;;;;5.03;0.85;;;;;;;;;;5014120;28;20036;-82
2022/07/01 09:03:56;;;;;;;2.40;0.30;;;;;;;;;;5046309;28;20033;-79
2022/07/01 09:06:23;;;;;;;1.50;0.35;;;;;;;;;;5012841;28;20491;-81
2022/07/01 09:08:49;;;;;;;2.40;0.50;;;;;;;;;;5013817;28;20392;-80
2022/07/01 09:11:24;;;;;;;1.88;0.30;;;;;;;;;;5047039;28;20032;-80
2022/07/01 09:14:09;;;;;;;2.65;0.30;;;;;;;;;;4997518;28;20079;-80
2022/07/01 09:16:45;;;;;;;4.13;0.68;;;;;;;;;;5030013;28;20033;-80
2022/07/01 09:19:11;;;;;;;3.17;0.70;;;;;;;;;;5029916;28;20033;-80
2022/07/01 09:21:37;;;;;;;2.63;0.30;;;;;;;;;;5010548;28;20400;-81
2022/07/01 09:24:04;;;;;;;3.60;0.60;;;;;;;;;;5055861;28;20042;-85
2022/07/01 09:26:30;;;;;;;1.23;0.20;;;;;;;;;;5030045;28;20030;-84
2022/07/01 09:28:56;;;;;;;3.40;0.47;;;;;;;;;;5030593;28;20171;-84
2022/07/01 09:31:47;;;;;;;3.80;0.40;;;;;;;;;;4997446;28;20030;-84
2022/07/01 09:34:13;;;;;;;1.17;0.30;;;;;;;;;;5030320;28;20045;-84
2022/07/01 09:36:40;;;;;;;2.15;0.43;;;;;;;;;;5030210;28;20030;-85
2022/07/01 09:39:06;;;;;;;2.38;0.65;;;;;;;;;;5014178;28;20172;-85
2022/07/01 09:41:37;;;;;;;1.42;0.20;;;;;;;;;;5030585;28;20128;-84
2022/07/01 09:44:09;;;;;;;3.45;0.40;;;;;;;;;;5031366;28;20187;-84
2022/07/01 09:46:35;;;;;;;2.53;0.35;;;;;;;;;;5034673;28;20485;-81
2022/07/01 09:49:00;;;;;;;3.83;0.57;;;;;;;;;;5001454;28;20037;-82
2022/07/01 09:51:26;;;;;;;1.95;0.60;;;;;;;;;;5014135;28;20108;-82
2022/07/01 09:53:51;;;;;;;4.63;0.60;;;;;;;;;;5030866;28;20042;-82
2022/07/01 09:56:18;;;;;;;1.30;0.32;;;;;;;;;;5034131;28;20492;-82
2022/07/01 09:58:44;;;;;;;1.92;0.60;;;;;;;;;;5001439;28;20060;-82
2022/07/01 10:01:09;;;;;;;3.47;0.30;;;;;;;;;;5017635;28;20061;-82
2022/07/01 10:03:34;;;;;;;3.60;0.60;;;;;;;;;;5033628;28;20484;-82
2022/07/01 10:06:06;;;;;;;3.75;0.68;;;;;;;;;;5033748;28;20037;-81
2022/07/01 10:08:42;;;;;;;1.88;0.52;;;;;;;;;;5034324;28;20034;-81
2022/07/01 10:11:26;;;;;;;1.10;0.30;;;;;;;;;;5034034;28;20499;-81
2022/07/01 10:13:52;;;;;;;4.50;0.85;;;;;;;;;;5034028;28;20041;-82
2022/07/01 10:16:18;;;;;;;7.18;1.23;;;;;;;;;;5033399;28;20476;-82
2022/07/01 10:18:43;;;;;;;4.72;0.85;;;;;;;;;;5017513;28;20088;-81
2022/07/01 10:21:11;;;;;;;2.25;0.32;;;;;;;;;;5027838;28;20565;-83
2022/07/01 10:23:40;;;;;;;2.10;0.40;;;;;;;;;;5009629;28;20515;-82
2022/07/01 10:26:07;;;;;;;2.35;0.50;;;;;;;;;;5030336;28;20041;-82
2022/07/01 10:28:41;;;;;;;3.10;0.43;;;;;;;;;;4998014;28;20041;-85
2022/07/01 10:31:13;;;;;;;3.78;1.13;;;;;;;;;;4997526;28;20096;-82
2022/07/01 10:33:55;;;;;;;2.55;0.32;;;;;;;;;;4982522;28;20056;-81
2022/07/01 10:36:31;;;;;;;;;;;;;;;;;;5014115;28;20391;-81
2022/07/01 10:39:00;;;;;;;1.52;0.35;;;;;;;;;;5013975;28;19999;-81
2022/07/01 10:41:26;;;;;;;2.08;0.65;;;;;;;;;;5013599;28;20041;-81
2022/07/01 10:43:53;;;;;;;2.40;0.35;;;;;;;;;;4981080;28;20034;-81
2022/07/01 10:46:46;;;;;;;2.10;0.40;;;;;;;;;;5013536;28;20044;-81
2022/07/01 10:49:13;;;;;;;2.40;0.43;;;;;;;;;;5014708;28;20113;-80
2022/07/01 10:51:48;;;;;;;2.83;0.47;;;;;;;;;;5016564;28;20038;-81
2022/07/01 10:54:34;;;;;;;1.85;0.45;;;;;;;;;;5000982;28;20128;-80
2022/07/01 10:57:29;;;;;;;1.33;0.68;;;;;;;;;;5012521;28;20096;-84
2022/07/01 11:00:04;;;;;;;2.22;0.80;;;;;;;;;;4989185;28;20090;-82
2022/07/01 11:02:35;;;;;;;4.80;1.30;;;;;;;;;;5031605;28;20096;-79
2022/07/01 11:05:14;;;;;;;2.85;0.40;;;;;;;;;;5046315;28;20034;-84
2022/07/01 11:07:45;;;;;;;2.70;0.45;;;;;;;;;;5013658;28;20056;-87
2022/07/01 11:10:10;;;;;;;2.47;0.35;;;;;;;;;;5013013;28;20048;-87
2022/07/01 11:12:37;;;;;;;2.58;0.50;;;;;;;;;;5013228;28;20042;-85
2022/07/01 11:15:05;;;;;;;2.65;0.50;;;;;;;;;;5013544;28;20500;-86
2022/07/01 11:17:31;;;;;;;2.35;0.70;;;;;;;;;;5012922;28;20041;-86
2022/07/01 11:19:57;;;;;;;2.50;0.63;;;;;;;;;;5015307;28;20030;-87
2022/07/01 11:22:26;;;;;;;2.05;0.65;;;;;;;;;;5003800;28;20063;-85
2022/07/01 11:24:53;;;;;;;1.60;0.50;;;;;;;;;;4997764;28;20037;-84
2022/07/01 11:27:18;;;;;;;1.70;0.50;;;;;;;;;;4980344;28;20077;-83
2022/07/01 11:29:45;;;;;;;3.42;0.85;;;;;;;;;;4996551;28;20171;-84
2022/07/01 11:32:10;;;;;;;3.63;0.85;;;;;;;;;;5012418;28;20084;-81
2022/07/01 11:34:36;;;;;;;2.55;0.38;;;;;;;;;;4979817;28;20034;-83
2022/07/01 11:40:12;;;;;;;2.60;0.60;;;;;;;;;;5031336;28;20042;-84
2022/07/01 11:42:37;;;;;;;2.05;0.40;;;;;;;;;;4997271;28;20065;-84
2022/07/01 11:45:03;;;;;;;2.05;0.50;;;;;;;;;;5017737;28;20419;-82
2022/07/01 11:47:28;;;;;;;2.22;0.20;;;;;;;;;;5012155;28;20059;-84
2022/07/01 11:49:54;;;;;;;1.75;0.30;;;;;;;;;;5036010;28;20052;-84
2022/07/01 11:52:21;;;;;;;2.25;0.20;;;;;;;;;;5032449;28;20283;-85
2022/07/01 11:54:51;;;;;;;1.80;0.30;;;;;;;;;;5032149;28;20033;-81
2022/07/01 11:57:21;;;;;;;2.25;0.70;;;;;;;;;;5028396;28;20492;-83
2022/07/01 11:59:49;;;;;;;1.33;0.38;;;;;;;;;;5012248;28;20061;-83
2022/07/01 12:02:16;;;;;;;2.55;0.60;;;;;;;;;;5028310;28;20120;-83
2022/07/01 12:04:42;;;;;;;1.52;0.50;;;;;;;;;;4995472;28;20404;-83
2022/07/01 12:07:08;;;;;;;3.78;0.80;;;;;;;;;;5011798;28;20120;-82
2022/07/01 12:09:34;;;;;;;2.75;0.60;;;;;;;;;;5011763;28;20037;-81
2022/07/01 12:11:59;;;;;;;3.13;0.65;;;;;;;;;;5011814;28;20091;-81
2022/07/01 12:14:30;;;;;;;3.55;0.77;;;;;;;;;;5012110;28;20157;-82
2022/07/01 12:17:00;;;;;;;3.40;0.35;;;;;;;;;;4979040;28;20038;-81
2022/07/01 12:19:29;;;;;;;1.90;0.32;;;;;;;;;;4995545;28;20378;-81
2022/07/01 12:21:58;;;;;;;1.88;0.55;;;;;;;;;;5028725;28;20037;-80
2022/07/01 12:24:23;;;;;;;1.65;0.28;;;;;;;;;;5015468;28;20037;-81
2022/07/01 12:26:58;;;;;;;0.77;0.20;;;;;;;;;;5015032;28;20057;-81
2022/07/01 12:29:25;;;;;;;1.35;0.40;;;;;;;;;;5032540;28;20033;-81
2022/07/01 12:32:01;;;;;;;1.10;0.45;;;;;;;;;;4997795;28;20136;-82
2022/07/01 12:35:00;;;;;;;1.02;0.30;;;;;;;;;;4998973;28;20034;-83
2022/07/01 12:37:32;;;;;;;1.98;0.30;;;;;;;;;;4984617;28;20443;-82
2022/07/01 12:40:03;;;;;;;1.77;0.50;;;;;;;;;;5014574;28;20152;-83
2022/07/01 12:42:39;;;;;;;1.45;0.30;;;;;;;;;;4982845;28;20112;-83
2022/07/01 12:45:06;;;;;;;2.38;0.20;;;;;;;;;;4995967;28;20030;-84
2022/07/01 12:47:35;;;;;;;2.17;0.20;;;;;;;;;;4979175;28;20045;-83
2022/07/01 12:50:14;;;;;;;0.35;0.22;;;;;;;;;;5019297;28;20067;-82
2022/07/01 12:52:46;;;;;;;1.67;0.32;;;;;;;;;;5031236;28;20033;-83
2022/07/01 12:55:21;;;;;;;;;;;;;;;;;;5032420;28;20040;-82
2022/07/01 12:57:47;;;;;;;2.05;0.40;;;;;;;;;;5044167;28;19920;-81
2022/07/01 13:00:14;;;;;;;1.02;0.30;;;;;;;;;;5010483;28;20088;-81
2022/07/01 13:02:40;;;;;;;1.60;0.85;;;;;;;;;;4994978;28;20481;-82
2022/07/01 13:05:06;;;;;;;1.38;0.30;;;;;;;;;;5027362;28;20044;-83
2022/07/01 13:07:33;;;;;;;0.98;0.30;;;;;;;;;;5011309;28;20076;-83
2022/07/01 13:09:58;;;;;;;0.63;0.10;;;;;;;;;;5027279;28;20041;-81
2022/07/01 13:12:24;;;;;;;1.50;0.38;;;;;;;;;;5027654;28;20038;-82
2022/07/01 13:14:49;;;;;;;0.65;0.20;;;;;;;;;;5010873;28;20056;-82
2022/07/01 13:17:15;;;;;;;1.50;0.30;;;;;;;;;;5026912;28;20038;-81
2022/07/01 13:19:40;;;;;;;1.02;0.20;;;;;;;;;;5010371;28;20057;-82
2022/07/01 13:22:05;;;;;;;1.55;0.43;;;;;;;;;;5031116;28;20059;-82
2022/07/01 13:24:31;;;;;;;2.80;0.45;;;;;;;;;;4985868;28;20040;-82
2022/07/01 13:26:57;;;;;;;4.30;1.35;;;;;;;;;;5014404;28;20029;-82
2022/07/01 13:29:23;;;;;;;2.33;0.55;;;;;;;;;;5046627;28;20063;-82
2022/07/01 13:31:49;;;;;;;1.70;0.57;;;;;;;;;;5047616;28;20067;-87
2022/07/01 13:34:17;;;;;;;1.50;0.50;;;;;;;;;;5014891;28;20123;-86
2022/07/01 13:36:43;;;;;;;1.77;0.35;;;;;;;;;;5014978;28;20029;-87
2022/07/01 13:39:11;;;;;;;1.42;0.43;;;;;;;;;;5015136;28;20044;-87
2022/07/01 13:41:37;;;;;;;1.63;0.45;;;;;;;;;;5015110;28;20040;-88
2022/07/01 13:44:03;;;;;;;1.02;0.30;;;;;;;;;;5031397;28;20034;-88
2022/07/01 13:46:30;;;;;;;1.92;0.43;;;;;;;;;;5031472;28;20044;-87
2022/07/01 13:48:58;;;;;;;2.85;0.50;;;;;;;;;;5047886;28;20044;-88
2022/07/01 13:51:26;;;;;;;0.63;0.35;;;;;;;;;;5051029;28;20032;-88
2022/07/01 13:53:52;;;;;;;1.30;0.50;;;;;;;;;;5018613;28;20541;-89
2022/07/01 13:56:19;;;;;;;0.98;0.40;;;;;;;;;;5028248;28;20140;-88
2022/07/01 13:58:44;;;;;;;1.48;0.50;;;;;;;;;;5027655;28;20408;-84
2022/07/01 14:01:09;;;;;;;3.63;1.45;;;;;;;;;;5011339;28;20038;-86
2022/07/01 14:03:36;;;;;;;1.15;0.38;;;;;;;;;;5028080;28;20038;-89
2022/07/01 14:06:04;;;;;;;2.42;0.40;;;;;;;;;;5011913;28;20097;-88
2022/07/01 14:08:33;;;;;;;2.83;0.75;;;;;;;;;;4995936;28;20074;-89
2022/07/01 14:10:59;;;;;;;1.63;0.60;;;;;;;;;;5012082;28;20168;-88
2022/07/01 14:13:27;;;;;;;1.45;0.30;;;;;;;;;;5011626;28;20136;-87
2022/07/01 14:15:53;;;;;;;2.10;0.50;;;;;;;;;;5011670;28;20156;-88
2022/07/01 14:18:20;;;;;;;2.65;0.57;;;;;;;;;;4995411;28;20037;-88
2022/07/01 14:20:46;;;;;;;1.85;0.40;;;;;;;;;;4995528;28;20061;-88
2022/07/01 14:23:13;;;;;;;1.85;0.25;;;;;;;;;;4995490;28;20118;-87
2022/07/01 14:25:40;;;;;;;3.10;0.45;;;;;;;;;;5010856;28;20125;-82
2022/07/01 14:28:06;;;;;;;3.38;0.40;;;;;;;;;;5010865;28;20066;-85
2022/07/01 14:30:33;;;;;;;1.20;0.40;;;;;;;;;;4995896;28;20049;-84
2022/07/01 14:33:00;;;;;;;1.55;0.43;;;;;;;;;;5013824;28;20152;-83
2022/07/01 14:35:26;;;;;;;2.28;0.68;;;;;;;;;;5014372;28;20133;-83
2022/07/01 14:37:51;;;;;;;2.85;0.45;;;;;;;;;;4997632;28;20117;-84
2022/07/01 14:40:18;;;;;;;0.60;0.17;;;;;;;;;;5013679;28;20042;-83
2022/07/01 14:42:45;;;;;;;3.10;0.50;;;;;;;;;;5030343;28;20180;-85
2022/07/01 14:45:12;;;;;;;1.45;0.40;;;;;;;;;;5014145;28;20034;-83
2022/07/01 14:47:42;;;;;;;1.15;0.30;;;;;;;;;;5014211;28;20504;-83
2022/07/01 14:50:08;;;;;;;4.97;0.38;;;;;;;;;;5048414;28;20029;-83
2022/07/01 14:52:35;;;;;;;1.23;0.20;;;;;;;;;;5020512;28;20044;-84
2022/07/01 14:55:01;;;;;;;2.15;0.52;;;;;;;;;;5053114;28;20044;-83
2022/07/01 14:57:27;;;;;;;2.92;0.40;;;;;;;;;;5020178;28;20038;-84
2022/07/01 14:59:52;;;;;;;9.10;0.75;;;;;;;;;;5013063;28;20408;-83